Time;durP1;ratioP1;P1;durP2;ratioP2;P2;SDS_P1;SDS_P2;PMS_P1;PMS_P2;Temp;Humidity;BMP_temperature;BMP_pressure;BME280_temperature;BME280_humidity;BME280_pressure;Samples;Min_cycle;Max_cycle;Signal;HPM_P1;HPM_P2
2021/10/03 00:00:48;;;;;;;1.42;1.17;;;17.20;99.70;;;;;;5032944;28;20029;-86
2021/10/03 00:03:26;;;;;;;1.17;1.00;;;17.20;99.60;;;;;;5016610;28;20034;-87
2021/10/03 00:05:53;;;;;;;2.20;0.80;;;17.30;99.60;;;;;;5022634;28;20610;-86
2021/10/03 00:08:19;;;;;;;1.33;1.00;;;17.30;99.50;;;;;;5014522;28;20018;-86
2021/10/03 00:10:45;;;;;;;2.33;1.05;;;17.30;99.50;;;;;;5034041;28;20021;-86
2021/10/03 00:13:11;;;;;;;1.00;0.73;;;17.30;99.50;;;;;;5029041;28;20014;-87
2021/10/03 00:15:40;;;;;;;2.20;0.90;;;17.30;99.50;;;;;;5022767;28;20032;-87
2021/10/03 00:18:08;;;;;;;1.98;0.70;;;17.40;99.40;;;;;;5030302;28;20029;-86
2021/10/03 00:20:35;;;;;;;0.63;0.63;;;17.40;99.40;;;;;;4980445;28;20121;-86
2021/10/03 00:23:01;;;;;;;2.33;0.95;;;17.40;99.40;;;;;;5011410;28;20025;-86
2021/10/03 00:25:28;;;;;;;3.38;1.20;;;17.40;99.40;;;;;;5009664;28;20029;-86
2021/10/03 00:27:55;;;;;;;2.63;0.90;;;17.40;99.30;;;;;;4976559;28;20029;-87
2021/10/03 00:30:22;;;;;;;1.17;0.80;;;17.40;99.40;;;;;;5015780;28;20426;-87
2021/10/03 00:32:48;;;;;;;0.88;0.80;;;17.40;99.30;;;;;;5033003;28;20053;-87
2021/10/03 00:35:24;;;;;;;0.60;0.60;;;17.40;99.30;;;;;;5016760;28;20076;-89
2021/10/03 00:37:52;;;;;;;0.65;0.65;;;17.50;99.20;;;;;;5033037;28;20119;-89
2021/10/03 00:40:29;;;;;;;1.23;0.80;;;17.50;99.20;;;;;;5029673;28;20099;-90
2021/10/03 00:43:01;;;;;;;1.10;0.82;;;17.50;99.10;;;;;;5017257;28;20359;-90
2021/10/03 00:45:29;;;;;;;2.03;0.90;;;17.60;99.10;;;;;;5021125;28;20033;-91
2021/10/03 00:47:55;;;;;;;1.17;0.73;;;17.60;99.00;;;;;;5000749;28;20037;-90
2021/10/03 00:50:26;;;;;;;1.35;0.75;;;17.60;99.00;;;;;;5033806;28;20028;-90
2021/10/03 00:52:54;;;;;;;;;;;17.60;99.00;;;;;;4987282;28;20029;-90
2021/10/03 00:55:21;;;;;;;0.85;0.60;;;17.60;98.90;;;;;;5020007;28;19906;-92
2021/10/03 00:57:52;;;;;;;2.05;0.63;;;17.60;98.90;;;;;;5031012;28;20038;-89
2021/10/03 01:00:26;;;;;;;1.30;0.90;;;17.60;99.30;;;;;;5026495;28;20025;-90
2021/10/03 01:02:53;;;;;;;1.05;0.90;;;17.60;99.00;;;;;;5011079;28;20049;-92
2021/10/03 01:05:19;;;;;;;1.75;0.70;;;17.70;99.00;;;;;;5013153;28;20029;-89
2021/10/03 01:07:49;;;;;;;2.35;0.70;;;17.70;99.00;;;;;;5021023;28;20013;-89
2021/10/03 01:10:22;;;;;;;2.15;0.93;;;17.70;99.00;;;;;;5032648;28;20164;-89
2021/10/03 01:12:56;;;;;;;2.80;0.95;;;17.70;99.00;;;;;;5020666;28;20040;-90
2021/10/03 01:15:22;;;;;;;1.48;0.70;;;17.70;99.00;;;;;;5016415;28;20025;-89
2021/10/03 01:17:54;;;;;;;1.20;0.68;;;17.70;99.00;;;;;;4995723;28;20053;-89
2021/10/03 01:20:22;;;;;;;2.03;0.70;;;17.70;99.10;;;;;;5016789;28;20369;-90
2021/10/03 01:22:49;;;;;;;5.95;0.88;;;17.60;99.20;;;;;;5002169;28;20032;-88
2021/10/03 01:25:18;;;;;;;1.23;0.75;;;17.60;99.20;;;;;;5016326;28;20116;-89
2021/10/03 01:27:46;;;;;;;0.82;0.55;;;17.60;99.20;;;;;;5019031;28;20030;-91
2021/10/03 01:30:16;;;;;;;0.60;0.60;;;17.60;99.30;;;;;;5023480;28;20422;-90
2021/10/03 01:32:42;;;;;;;3.35;0.70;;;17.60;99.30;;;;;;5029126;28;20121;-86
2021/10/03 01:35:12;;;;;;;1.23;0.70;;;17.70;99.30;;;;;;5020084;28;20080;-85
2021/10/03 01:37:38;;;;;;;1.38;0.77;;;17.60;99.40;;;;;;5020045;22;20045;-89
2021/10/03 01:40:07;;;;;;;0.70;0.70;;;17.60;99.70;;;;;;4995774;28;20026;-89
2021/10/03 01:42:33;;;;;;;1.42;0.80;;;17.60;99.80;;;;;;4996390;28;20061;-90
2021/10/03 01:44:59;;;;;;;0.68;0.68;;;17.60;99.90;;;;;;4996324;28;20116;-90
2021/10/03 01:47:25;;;;;;;0.95;0.65;;;17.50;99.90;;;;;;5012489;28;20532;-90
2021/10/03 01:49:51;;;;;;;0.90;0.80;;;17.50;99.90;;;;;;4996227;28;20061;-88
2021/10/03 01:52:17;;;;;;;1.27;0.80;;;17.50;99.90;;;;;;4995372;28;20045;-86
2021/10/03 01:54:44;;;;;;;2.22;0.80;;;17.50;99.90;;;;;;4970625;28;20030;-87
2021/10/03 01:57:10;;;;;;;1.20;0.82;;;17.50;99.90;;;;;;4995358;28;20075;-88
2021/10/03 01:59:38;;;;;;;1.27;0.80;;;17.50;99.90;;;;;;4990720;28;20061;-88
2021/10/03 02:02:05;;;;;;;0.90;0.70;;;17.40;99.90;;;;;;4998352;28;20018;-89
2021/10/03 02:05:14;;;;;;;1.05;0.60;;;17.40;99.90;;;;;;4995715;28;20065;-91
2021/10/03 02:07:40;;;;;;;1.20;0.90;;;17.40;99.90;;;;;;5011823;28;20490;-89
2021/10/03 02:10:06;;;;;;;1.73;0.80;;;17.40;99.90;;;;;;4995615;28;20030;-89
2021/10/03 02:12:32;;;;;;;0.77;0.77;;;17.50;99.90;;;;;;4978548;28;20478;-88
2021/10/03 02:15:00;;;;;;;1.70;0.90;;;17.40;99.90;;;;;;5004957;28;20109;-89
2021/10/03 02:18:03;;;;;;;0.90;0.68;;;17.40;99.90;;;;;;4982939;28;20030;-88
2021/10/03 02:20:29;;;;;;;0.90;0.70;;;17.40;99.90;;;;;;4977062;28;20052;-88
2021/10/03 02:22:55;;;;;;;1.88;0.95;;;17.40;99.90;;;;;;5015147;28;20487;-88
2021/10/03 02:25:24;;;;;;;1.85;0.80;;;17.50;99.90;;;;;;4982389;28;20495;-88
2021/10/03 02:27:52;;;;;;;10.48;0.98;;;17.40;99.90;;;;;;5015378;28;20022;-89
2021/10/03 02:30:18;;;;;;;0.70;0.68;;;17.40;99.90;;;;;;5014871;28;20029;-88
2021/10/03 02:32:55;;;;;;;2.95;1.35;;;17.40;99.90;;;;;;5013496;28;20030;-90
2021/10/03 02:35:26;;;;;;;2.20;0.95;;;17.40;99.90;;;;;;4984099;28;20045;-89
2021/10/03 02:37:54;;;;;;;3.42;0.85;;;17.50;99.90;;;;;;4986889;28;20065;-88
2021/10/03 02:40:20;;;;;;;0.88;0.70;;;17.50;99.90;;;;;;4967793;28;20046;-88
2021/10/03 02:42:46;;;;;;;1.30;0.60;;;17.50;99.90;;;;;;4995582;28;20018;-90
2021/10/03 02:45:12;;;;;;;1.83;1.00;;;17.50;99.90;;;;;;4979464;28;20036;-90
2021/10/03 02:47:52;;;;;;;;;;;;;;;;;;;;;
2021/10/03 02:50:24;;;;;;;0.70;0.70;;;17.40;99.90;;;;;;4990924;28;20026;-90
2021/10/03 02:52:56;;;;;;;2.67;0.77;;;17.40;99.90;;;;;;4967150;28;20126;-91
2021/10/03 02:55:41;;;;;;;0.80;0.70;;;17.40;99.90;;;;;;4985127;28;20037;-91
2021/10/03 02:58:13;;;;;;;1.08;0.77;;;17.40;99.90;;;;;;4990637;28;20039;-90
2021/10/03 03:00:56;;;;;;;1.83;0.80;;;17.40;99.90;;;;;;4975363;28;20029;-90
2021/10/03 03:03:24;;;;;;;0.57;0.57;;;17.40;99.90;;;;;;5015449;28;20030;-91
2021/10/03 03:06:25;;;;;;;1.15;0.98;;;17.40;99.90;;;;;;5007852;28;20405;-90
2021/10/03 03:08:54;;;;;;;1.13;0.98;;;17.30;99.90;;;;;;4973218;28;20037;-91
2021/10/03 03:14:26;;;;;;;1.48;0.80;;;17.40;99.90;;;;;;4945905;29;20098;-89
2021/10/03 03:17:18;;;;;;;1.02;0.90;;;17.40;99.90;;;;;;4973407;28;20035;-90
2021/10/03 03:19:47;;;;;;;1.48;0.68;;;17.40;99.90;;;;;;4985171;28;20015;-90
2021/10/03 03:22:19;;;;;;;0.90;0.80;;;17.40;99.90;;;;;;4978023;28;20119;-90
2021/10/03 03:24:44;;;;;;;1.90;0.90;;;17.40;99.90;;;;;;5005389;28;20041;-91
2021/10/03 03:27:10;;;;;;;1.42;0.90;;;17.40;99.90;;;;;;4994949;28;20416;-90
2021/10/03 03:29:48;;;;;;;2.47;1.13;;;17.40;99.90;;;;;;4975537;28;20030;-91
2021/10/03 03:32:37;;;;;;;1.50;1.00;;;17.40;99.90;;;;;;4988706;28;20032;-90
2021/10/03 03:35:51;;;;;;;;;;;;;;;;;;;;;
2021/10/03 03:38:23;;;;;;;0.95;0.90;;;17.40;99.90;;;;;;5010730;28;20044;-89
2021/10/03 03:41:05;;;;;;;2.45;1.27;;;17.40;99.90;;;;;;4998852;28;20026;-90
2021/10/03 03:43:50;;;;;;;2.38;1.10;;;17.40;99.90;;;;;;5001304;28;20132;-89
2021/10/03 03:46:25;;;;;;;3.15;1.35;;;17.40;99.90;;;;;;5018015;28;20022;-89
2021/10/03 03:48:56;;;;;;;1.65;1.05;;;17.50;99.90;;;;;;4999342;28;20034;-92
2021/10/03 03:51:22;;;;;;;3.70;1.55;;;17.40;99.90;;;;;;4999657;28;20028;-90
2021/10/03 03:53:48;;;;;;;3.45;1.70;;;17.40;99.90;;;;;;5015857;28;20117;-93
2021/10/03 03:56:13;;;;;;;2.78;1.08;;;17.50;99.90;;;;;;5015268;28;20036;-93
2021/10/03 03:58:42;;;;;;;2.53;1.40;;;17.40;99.90;;;;;;4998937;28;20116;-93
2021/10/03 04:01:08;;;;;;;2.35;1.08;;;17.40;99.90;;;;;;5000432;28;20125;-93
2021/10/03 04:03:39;;;;;;;1.42;0.60;;;17.40;99.90;;;;;;4985472;28;20056;-93
2021/10/03 04:06:08;;;;;;;1.58;0.55;;;17.40;99.90;;;;;;4998833;28;20073;-93
2021/10/03 04:08:42;;;;;;;1.50;0.70;;;17.30;99.90;;;;;;5000429;28;20460;-93
2021/10/03 04:11:20;;;;;;;2.95;0.50;;;17.20;99.90;;;;;;4980482;28;20034;-93
2021/10/03 04:13:46;;;;;;;0.73;0.43;;;17.20;99.90;;;;;;5013371;28;20391;-93
2021/10/03 04:16:11;;;;;;;3.13;0.88;;;17.10;99.90;;;;;;5014629;28;20026;-93
2021/10/03 04:18:40;;;;;;;1.77;0.68;;;17.00;99.90;;;;;;5014434;28;20029;-92
2021/10/03 04:21:06;;;;;;;0.95;0.52;;;16.90;99.90;;;;;;4981996;28;20030;-92
2021/10/03 04:23:31;;;;;;;1.13;0.60;;;16.90;99.90;;;;;;4998364;28;20045;-92
2021/10/03 04:25:57;;;;;;;1.80;0.60;;;16.80;99.90;;;;;;4998053;28;20037;-92
2021/10/03 04:28:29;;;;;;;0.77;0.60;;;16.80;99.90;;;;;;4981541;28;20025;-88
2021/10/03 04:30:57;;;;;;;1.70;0.88;;;16.70;99.90;;;;;;4964168;28;20030;-88
2021/10/03 04:33:26;;;;;;;1.23;0.50;;;16.70;99.90;;;;;;4996484;28;20037;-88
2021/10/03 04:35:54;;;;;;;3.00;0.90;;;16.60;99.90;;;;;;4996655;28;20041;-91
2021/10/03 04:38:21;;;;;;;1.05;0.70;;;16.60;99.90;;;;;;4979426;28;20168;-90
2021/10/03 04:40:49;;;;;;;3.30;0.50;;;16.60;99.90;;;;;;4997123;28;20029;-91
2021/10/03 04:43:30;;;;;;;1.95;0.70;;;16.50;99.90;;;;;;4981333;28;20065;-90
2021/10/03 04:45:59;;;;;;;1.50;0.40;;;16.40;99.90;;;;;;4995785;28;20030;-91
2021/10/03 04:48:31;;;;;;;1.30;0.57;;;16.30;99.90;;;;;;4996470;28;20045;-91
2021/10/03 04:50:57;;;;;;;2.08;0.40;;;16.30;99.90;;;;;;4997030;28;20101;-90
2021/10/03 04:53:32;;;;;;;2.20;0.60;;;16.10;99.90;;;;;;4996859;28;20030;-91
2021/10/03 04:56:00;;;;;;;1.80;0.70;;;16.10;99.90;;;;;;4966779;28;20034;-90
2021/10/03 04:58:33;;;;;;;1.90;0.50;;;16.00;99.90;;;;;;5013082;28;20022;-90
2021/10/03 05:01:15;;;;;;;;;;;;;;;;;;;;;
2021/10/03 05:03:51;;;;;;;1.10;0.70;;;15.90;99.90;;;;;;5002953;28;20026;-91
2021/10/03 05:06:20;;;;;;;1.45;0.63;;;15.90;99.90;;;;;;4996844;28;20034;-89
2021/10/03 05:08:59;;;;;;;1.20;0.70;;;15.80;99.90;;;;;;4996639;28;20077;-88
2021/10/03 05:11:29;;;;;;;0.90;0.65;;;15.80;99.90;;;;;;5012656;28;20439;-88
2021/10/03 05:14:00;;;;;;;1.70;0.57;;;15.80;99.90;;;;;;5000376;28;20021;-89
2021/10/03 05:16:34;;;;;;;;;;;15.70;99.90;;;;;;4997055;28;20550;-89
2021/10/03 05:19:03;;;;;;;2.25;0.70;;;15.70;99.90;;;;;;5024886;28;20417;-88
2021/10/03 05:21:52;;;;;;;1.17;0.77;;;15.70;99.90;;;;;;4996134;28;20057;-89
2021/10/03 05:24:18;;;;;;;4.18;0.80;;;15.70;99.90;;;;;;4982149;28;20484;-88
2021/10/03 05:26:53;;;;;;;5.32;1.10;;;15.60;99.90;;;;;;4998200;28;20061;-90
2021/10/03 05:29:19;;;;;;;2.20;0.73;;;15.60;99.90;;;;;;4980066;28;20109;-90
2021/10/03 05:31:44;;;;;;;2.05;0.68;;;15.60;99.90;;;;;;4982906;28;20420;-90
2021/10/03 05:34:12;;;;;;;3.75;1.08;;;15.60;99.90;;;;;;5012676;28;20060;-90
2021/10/03 05:36:44;;;;;;;3.95;0.90;;;15.60;99.90;;;;;;4980443;28;20029;-91
2021/10/03 05:39:14;;;;;;;1.92;0.90;;;15.60;99.90;;;;;;4996721;28;20116;-90
2021/10/03 05:41:43;;;;;;;3.72;1.00;;;15.60;99.90;;;;;;4965087;28;20022;-90
2021/10/03 05:44:17;;;;;;;3.00;1.33;;;15.70;99.90;;;;;;4979497;28;20038;-91
2021/10/03 05:46:56;;;;;;;1.65;0.90;;;15.70;99.90;;;;;;4995831;28;20088;-90
2021/10/03 05:49:24;;;;;;;1.00;0.80;;;15.70;99.90;;;;;;5015986;28;20077;-90
2021/10/03 05:51:53;;;;;;;2.15;1.00;;;15.70;99.90;;;;;;5006749;28;20416;-90
2021/10/03 05:54:19;;;;;;;2.28;0.98;;;15.70;99.90;;;;;;4978320;28;20054;-90
2021/10/03 05:56:48;;;;;;;2.00;1.00;;;15.70;99.90;;;;;;5023152;28;20022;-90
2021/10/03 05:59:14;;;;;;;2.95;1.10;;;15.70;99.90;;;;;;5017654;28;20045;-90
2021/10/03 06:01:43;;;;;;;1.92;1.30;;;15.80;99.90;;;;;;5000868;28;20053;-89
2021/10/03 06:04:14;;;;;;;2.67;1.25;;;15.70;99.90;;;;;;5000622;28;20422;-90
2021/10/03 06:06:43;;;;;;;3.58;1.00;;;15.70;99.90;;;;;;5010282;28;20022;-91
2021/10/03 06:09:09;;;;;;;4.03;1.30;;;15.70;99.90;;;;;;4987850;28;20034;-91
2021/10/03 06:11:38;;;;;;;2.60;1.30;;;15.70;99.90;;;;;;5000421;28;20069;-91
2021/10/03 06:14:09;;;;;;;2.78;1.05;;;15.70;99.90;;;;;;4981211;28;20027;-89
2021/10/03 06:16:42;;;;;;;2.22;1.20;;;15.70;99.90;;;;;;4985975;28;20087;-91
2021/10/03 06:19:07;;;;;;;1.52;1.10;;;15.70;99.90;;;;;;4990556;28;20363;-91
2021/10/03 06:21:34;;;;;;;3.45;1.25;;;15.70;99.90;;;;;;4980230;28;20030;-90
2021/10/03 06:24:11;;;;;;;2.78;1.50;;;15.70;99.90;;;;;;4981001;28;20023;-90
2021/10/03 06:26:42;;;;;;;3.00;1.60;;;15.70;99.90;;;;;;4996818;28;20058;-90
2021/10/03 06:29:08;;;;;;;2.15;1.30;;;15.70;99.90;;;;;;4982677;28;20034;-90
2021/10/03 06:31:33;;;;;;;3.03;1.50;;;15.70;99.90;;;;;;5000192;28;20033;-90
2021/10/03 06:33:59;;;;;;;2.25;1.30;;;15.70;99.90;;;;;;5000031;28;20036;-90
2021/10/03 06:36:27;;;;;;;2.05;1.17;;;15.70;99.90;;;;;;4999931;28;20521;-90
2021/10/03 06:38:53;;;;;;;2.67;1.70;;;15.70;99.90;;;;;;4990919;28;20511;-90
2021/10/03 06:41:19;;;;;;;3.65;1.65;;;15.70;99.90;;;;;;4996626;28;20031;-90
2021/10/03 06:43:45;;;;;;;3.05;1.67;;;15.70;99.90;;;;;;5007136;28;20030;-90
2021/10/03 06:46:11;;;;;;;4.88;1.70;;;15.70;99.90;;;;;;4999670;28;20088;-90
2021/10/03 06:48:39;;;;;;;2.25;1.50;;;15.80;99.90;;;;;;5016176;28;20030;-90
2021/10/03 06:51:24;;;;;;;2.35;1.45;;;15.70;99.90;;;;;;4999910;28;20029;-90
2021/10/03 06:53:50;;;;;;;2.40;1.42;;;15.70;99.90;;;;;;5024402;28;20033;-90
2021/10/03 06:56:18;;;;;;;2.97;1.75;;;15.70;99.90;;;;;;5000979;28;20022;-89
2021/10/03 06:58:50;;;;;;;5.43;2.10;;;15.70;99.90;;;;;;5003230;28;20496;-92
2021/10/03 07:01:30;;;;;;;2.72;1.80;;;15.80;99.90;;;;;;5015906;28;20026;-88
2021/10/03 07:04:05;;;;;;;2.83;1.73;;;15.70;99.90;;;;;;4999558;28;20018;-88
2021/10/03 07:06:53;;;;;;;3.47;1.90;;;15.70;99.90;;;;;;5015573;28;20448;-89
2021/10/03 07:09:25;;;;;;;3.17;1.75;;;15.70;99.90;;;;;;4998315;28;20036;-89
2021/10/03 07:11:51;;;;;;;3.20;1.50;;;15.70;99.90;;;;;;4999906;28;20029;-89
2021/10/03 07:14:32;;;;;;;2.67;1.50;;;15.70;99.90;;;;;;4999460;28;20100;-89
2021/10/03 07:17:03;;;;;;;3.35;1.30;;;15.70;99.90;;;;;;4999333;28;20069;-90
2021/10/03 07:19:37;;;;;;;2.88;1.70;;;15.70;99.90;;;;;;4998586;28;20038;-90
2021/10/03 07:22:12;;;;;;;3.50;1.77;;;15.70;99.90;;;;;;4983799;28;20096;-89
2021/10/03 07:24:50;;;;;;;4.95;1.50;;;15.70;99.90;;;;;;5015573;28;20037;-88
2021/10/03 07:27:15;;;;;;;4.90;1.88;;;15.70;99.90;;;;;;5011026;28;20026;-89
2021/10/03 07:29:44;;;;;;;6.15;2.33;;;15.70;99.90;;;;;;4983636;28;20037;-90
2021/10/03 07:32:34;;;;;;;3.33;1.60;;;15.70;99.90;;;;;;4998798;28;20030;-89
2021/10/03 07:35:06;;;;;;;2.63;1.58;;;15.80;99.90;;;;;;4982696;28;20387;-89
2021/10/03 07:37:41;;;;;;;3.53;1.60;;;15.70;99.90;;;;;;5006250;23;20506;-89
2021/10/03 07:40:07;;;;;;;3.38;1.60;;;15.70;99.90;;;;;;4980746;28;20549;-91
2021/10/03 07:42:34;;;;;;;2.72;1.60;;;15.70;99.90;;;;;;4980072;28;20014;-90
2021/10/03 07:44:59;;;;;;;3.72;1.55;;;15.60;99.90;;;;;;4964432;28;20034;-90
2021/10/03 07:47:36;;;;;;;3.60;1.70;;;15.60;99.90;;;;;;4979629;28;20030;-90
2021/10/03 07:50:08;;;;;;;2.88;1.80;;;15.60;99.90;;;;;;4976431;28;20019;-90
2021/10/03 07:52:41;;;;;;;4.45;2.08;;;15.70;99.90;;;;;;5009046;28;20023;-90
2021/10/03 07:55:20;;;;;;;3.85;2.10;;;15.60;99.90;;;;;;4962849;28;20034;-90
2021/10/03 07:57:46;;;;;;;3.70;1.90;;;15.60;99.90;;;;;;4962026;28;20053;-90
2021/10/03 08:00:16;;;;;;;2.92;1.90;;;15.60;99.90;;;;;;4977161;28;20035;-90
2021/10/03 08:02:49;;;;;;;3.42;1.92;;;15.60;99.90;;;;;;4962986;28;20045;-90
2021/10/03 08:05:18;;;;;;;4.22;2.08;;;15.70;99.90;;;;;;4978921;28;20038;-90
2021/10/03 08:07:44;;;;;;;3.75;2.00;;;15.60;99.90;;;;;;4975076;28;20050;-90
2021/10/03 08:10:10;;;;;;;3.28;1.85;;;15.70;99.90;;;;;;4964112;28;20042;-90
2021/10/03 08:12:36;;;;;;;2.95;1.70;;;15.60;99.90;;;;;;4978375;28;20049;-90
2021/10/03 08:15:20;;;;;;;4.18;1.60;;;15.60;99.90;;;;;;4978715;28;20030;-90
2021/10/03 08:17:49;;;;;;;3.70;2.05;;;15.60;99.90;;;;;;4964287;28;20034;-90
2021/10/03 08:20:18;;;;;;;3.70;1.63;;;15.60;99.90;;;;;;4967678;28;20057;-90
2021/10/03 08:22:45;;;;;;;3.28;1.55;;;15.60;99.90;;;;;;4956450;28;20460;-90
2021/10/03 08:25:16;;;;;;;3.15;1.88;;;15.60;99.90;;;;;;4976960;28;20030;-90
2021/10/03 08:27:48;;;;;;;2.03;1.48;;;15.60;99.90;;;;;;4974797;28;20035;-90
2021/10/03 08:30:14;;;;;;;2.92;1.80;;;15.60;99.90;;;;;;4959193;28;20026;-90
2021/10/03 08:32:43;;;;;;;2.85;1.70;;;15.60;99.90;;;;;;4978229;28;20080;-89
2021/10/03 08:35:09;;;;;;;1.92;1.25;;;15.60;99.90;;;;;;4962426;28;20050;-88
2021/10/03 08:37:42;;;;;;;2.45;1.50;;;15.60;99.90;;;;;;4970099;28;20141;-87
2021/10/03 08:40:14;;;;;;;2.40;1.27;;;15.60;99.90;;;;;;4957923;28;20030;-87
2021/10/03 08:42:58;;;;;;;2.45;1.17;;;15.60;99.90;;;;;;4958049;28;20027;-87
2021/10/03 08:45:59;;;;;;;2.25;0.85;;;15.50;99.90;;;;;;4946271;29;20038;-87
2021/10/03 08:48:29;;;;;;;1.15;0.75;;;15.50;99.90;;;;;;4948237;28;20469;-88
2021/10/03 08:51:07;;;;;;;2.10;0.80;;;15.50;99.90;;;;;;4958082;28;20026;-89
2021/10/03 08:53:32;;;;;;;2.88;0.88;;;15.40;99.90;;;;;;4957934;28;20027;-88
2021/10/03 08:56:01;;;;;;;1.70;0.65;;;15.40;99.90;;;;;;4944920;28;20027;-88
2021/10/03 08:58:27;;;;;;;6.07;0.90;;;15.40;99.90;;;;;;4966714;28;20031;-87
2021/10/03 09:00:56;;;;;;;2.15;0.65;;;15.30;99.90;;;;;;4943826;28;20034;-88
2021/10/03 09:03:24;;;;;;;3.25;0.70;;;15.30;99.90;;;;;;4957321;28;20027;-88
2021/10/03 09:05:53;;;;;;;2.72;0.90;;;15.30;99.90;;;;;;4957109;28;20476;-87
2021/10/03 09:08:27;;;;;;;2.05;0.80;;;15.30;99.90;;;;;;4960176;28;20019;-88
2021/10/03 09:10:59;;;;;;;1.42;0.90;;;15.30;99.90;;;;;;4957828;28;20023;-88
2021/10/03 09:13:31;;;;;;;4.00;1.42;;;15.30;99.90;;;;;;4961168;28;20027;-88
2021/10/03 09:16:03;;;;;;;3.35;1.05;;;15.20;99.90;;;;;;4961464;28;20022;-89
2021/10/03 09:19:11;;;;;;;2.55;1.00;;;15.20;99.90;;;;;;4961414;28;20033;-88
2021/10/03 09:21:40;;;;;;;1.88;1.10;;;15.20;99.90;;;;;;4920868;28;20042;-87
2021/10/03 09:24:15;;;;;;;2.05;1.10;;;15.20;99.90;;;;;;4969596;28;20037;-87
2021/10/03 09:27:03;;;;;;;3.95;1.38;;;15.10;99.90;;;;;;4957664;28;20029;-87
2021/10/03 09:29:33;;;;;;;3.03;1.00;;;15.10;99.90;;;;;;4954595;29;20141;-87
2021/10/03 09:32:22;;;;;;;3.03;1.38;;;15.10;99.90;;;;;;4948220;28;20457;-88
2021/10/03 09:34:51;;;;;;;3.50;1.30;;;15.10;99.90;;;;;;4971413;28;20023;-87
2021/10/03 09:40:38;;;;;;;2.13;1.45;;;15.10;99.90;;;;;;4969072;28;20022;-88
2021/10/03 09:43:04;;;;;;;2.25;1.27;;;15.10;99.90;;;;;;4938696;28;20023;-88
2021/10/03 09:45:55;;;;;;;3.17;1.30;;;15.10;99.90;;;;;;4941144;28;20134;-87
2021/10/03 09:48:21;;;;;;;1.80;1.10;;;15.10;99.90;;;;;;4958618;28;20114;-87
2021/10/03 09:50:47;;;;;;;2.90;1.52;;;15.10;99.90;;;;;;4940816;28;20047;-87
2021/10/03 09:53:14;;;;;;;1.45;1.10;;;15.10;99.90;;;;;;4942385;29;20384;-90
2021/10/03 09:55:41;;;;;;;1.67;0.95;;;15.10;99.90;;;;;;4931796;29;20058;-90
2021/10/03 09:58:07;;;;;;;2.55;1.10;;;15.10;99.90;;;;;;4956585;28;20046;-90
2021/10/03 10:00:33;;;;;;;1.23;1.00;;;15.10;99.90;;;;;;4973294;28;20446;-90
2021/10/03 10:03:04;;;;;;;2.72;1.05;;;15.10;99.90;;;;;;4970536;28;20038;-90
2021/10/03 10:05:33;;;;;;;1.30;1.00;;;15.10;99.90;;;;;;4973280;28;20074;-90
2021/10/03 10:07:58;;;;;;;1.73;0.80;;;15.10;99.90;;;;;;4954751;28;20073;-90
2021/10/03 10:10:25;;;;;;;0.95;0.82;;;15.10;99.90;;;;;;4962099;28;20106;-90
2021/10/03 10:12:57;;;;;;;1.95;1.15;;;15.10;99.90;;;;;;4956236;28;20031;-90
2021/10/03 10:15:26;;;;;;;1.88;1.33;;;15.10;99.90;;;;;;4956714;28;20027;-85
2021/10/03 10:18:23;;;;;;;2.03;1.00;;;15.10;99.90;;;;;;4973074;28;20027;-86
2021/10/03 10:21:00;;;;;;;0.82;0.70;;;15.10;99.90;;;;;;4967362;28;20113;-86
2021/10/03 10:24:15;;;;;;;1.92;0.93;;;15.20;99.90;;;;;;4953852;28;20047;-87
2021/10/03 10:26:50;;;;;;;0.60;0.50;;;15.10;99.90;;;;;;4876276;29;20041;-86
2021/10/03 10:30:18;;;;;;;0.60;0.52;;;15.10;99.90;;;;;;4874293;29;20028;-86
2021/10/03 10:32:56;;;;;;;0.70;0.70;;;15.20;99.90;;;;;;4894490;29;20041;-86
2021/10/03 10:36:10;;;;;;;1.73;0.65;;;15.20;99.90;;;;;;4881837;29;20032;-87
2021/10/03 10:39:14;;;;;;;0.80;0.70;;;15.20;99.90;;;;;;4865441;29;20053;-87
2021/10/03 10:42:37;;;;;;;1.35;0.60;;;15.10;99.90;;;;;;4863684;29;20041;-87
2021/10/03 10:45:49;;;;;;;0.65;0.60;;;15.10;99.90;;;;;;4866160;29;20101;-86
2021/10/03 10:48:45;;;;;;;2.65;1.10;;;15.10;99.90;;;;;;4923068;29;20048;-87
2021/10/03 10:51:49;;;;;;;1.88;0.90;;;15.10;99.90;;;;;;4905566;29;20543;-87
2021/10/03 10:54:15;;;;;;;1.35;0.90;;;15.10;99.90;;;;;;4910823;29;20051;-85
2021/10/03 10:57:38;;;;;;;2.35;1.30;;;15.10;99.90;;;;;;4926363;28;20524;-86
2021/10/03 11:00:35;;;;;;;1.90;1.10;;;15.10;99.90;;;;;;4992446;28;20064;-86
2021/10/03 11:06:19;;;;;;;1.10;1.00;;;15.10;99.90;;;;;;4991916;28;20037;-86
2021/10/03 11:09:32;;;;;;;3.03;1.50;;;15.20;99.90;;;;;;4975548;28;20129;-86
2021/10/03 11:12:14;;;;;;;2.00;1.58;;;15.20;99.90;;;;;;4972589;28;20035;-86
2021/10/03 11:14:41;;;;;;;2.63;1.70;;;15.20;99.90;;;;;;4994091;28;20153;-90
2021/10/03 11:20:27;;;;;;;2.00;1.77;;;15.10;99.90;;;;;;4941530;29;20098;-89
2021/10/03 11:23:29;;;;;;;1.80;1.63;;;15.10;99.90;;;;;;4913988;29;20122;-89
2021/10/03 11:26:04;;;;;;;1.98;1.70;;;15.10;99.90;;;;;;4922504;29;20516;-89
2021/10/03 11:32:14;;;;;;;1.73;1.60;;;15.10;99.90;;;;;;4891400;29;20586;-89
2021/10/03 11:34:42;;;;;;;1.85;1.70;;;15.10;99.90;;;;;;4891664;29;20388;-89
2021/10/03 11:37:35;;;;;;;2.38;1.75;;;15.10;99.90;;;;;;4899400;29;20044;-89
2021/10/03 11:40:22;;;;;;;3.17;1.50;;;15.10;99.90;;;;;;4916554;29;20529;-89
2021/10/03 11:43:28;;;;;;;3.45;1.70;;;15.10;99.90;;;;;;4900803;29;20032;-89
2021/10/03 11:46:23;;;;;;;1.40;1.30;;;15.10;99.90;;;;;;4931954;29;20140;-89
2021/10/03 11:48:51;;;;;;;3.15;2.40;;;15.10;99.90;;;;;;4931739;29;20035;-91
2021/10/03 11:51:17;;;;;;;3.20;2.42;;;15.10;99.90;;;;;;4943153;29;20020;-90
2021/10/03 11:53:47;;;;;;;2.88;2.20;;;15.10;99.90;;;;;;4943831;28;20035;-91
2021/10/03 11:56:15;;;;;;;1.92;1.58;;;15.10;99.90;;;;;;4980176;28;20045;-90
2021/10/03 11:58:42;;;;;;;1.80;1.50;;;15.00;99.90;;;;;;4979830;28;20034;-90
2021/10/03 12:01:08;;;;;;;1.30;1.20;;;15.00;99.90;;;;;;4978532;28;20030;-90
2021/10/03 12:03:54;;;;;;;1.60;1.50;;;15.00;99.90;;;;;;4978670;28;20115;-90
2021/10/03 12:06:38;;;;;;;1.70;1.60;;;15.00;99.90;;;;;;4979074;28;20045;-90
2021/10/03 12:09:11;;;;;;;4.75;3.30;;;15.00;99.90;;;;;;4975798;28;20520;-90
2021/10/03 12:12:02;;;;;;;12.48;8.30;;;15.00;99.90;;;;;;4986454;28;20034;-90
2021/10/03 12:14:46;;;;;;;;;;;15.00;99.90;;;;;;4975547;28;20034;-90
2021/10/03 12:17:37;;;;;;;11.40;7.95;;;15.00;99.90;;;;;;4977839;28;19945;-90
2021/10/03 12:20:03;;;;;;;27.85;20.95;;;15.00;99.90;;;;;;4975323;28;20066;-90
2021/10/03 12:23:19;;;;;;;16.30;13.02;;;15.00;99.90;;;;;;4981754;28;20027;-89
2021/10/03 12:25:43;;;;;;;7.28;5.80;;;15.00;99.90;;;;;;4997190;28;20034;-89
2021/10/03 12:28:09;;;;;;;5.57;3.88;;;15.10;99.90;;;;;;4979704;28;20506;-89
2021/10/03 12:31:16;;;;;;;3.70;2.75;;;15.10;99.90;;;;;;4980775;28;20039;-88
2021/10/03 12:33:41;;;;;;;3.58;2.83;;;15.00;99.90;;;;;;4992932;28;20448;-89
2021/10/03 12:36:10;;;;;;;3.45;2.80;;;15.10;99.90;;;;;;4966676;28;20066;-90
2021/10/03 12:38:51;;;;;;;3.47;2.70;;;15.10;99.90;;;;;;4968516;28;20073;-88
2021/10/03 12:41:20;;;;;;;3.17;2.35;;;15.10;99.90;;;;;;4932184;28;20069;-88
2021/10/03 12:44:24;;;;;;;3.92;2.45;;;15.10;99.90;;;;;;4957529;28;20034;-88
2021/10/03 12:47:23;;;;;;;3.97;2.90;;;15.10;99.90;;;;;;4955693;28;20026;-88
2021/10/03 12:50:36;;;;;;;3.60;3.00;;;15.10;99.90;;;;;;4956061;28;20038;-89
2021/10/03 12:53:02;;;;;;;4.25;3.55;;;15.10;99.90;;;;;;4958600;28;20027;-88
2021/10/03 12:55:28;;;;;;;5.20;3.50;;;15.20;99.90;;;;;;4962416;28;20029;-90
2021/10/03 12:58:02;;;;;;;5.50;4.20;;;15.20;99.90;;;;;;4944508;28;20027;-90
2021/10/03 13:00:44;;;;;;;5.35;3.97;;;15.20;99.90;;;;;;4959931;28;20034;-89
2021/10/03 13:03:42;;;;;;;5.63;4.25;;;15.20;99.90;;;;;;4959388;28;20057;-91
2021/10/03 13:06:10;;;;;;;4.75;3.67;;;15.20;99.90;;;;;;4953532;28;20054;-90
2021/10/03 13:08:36;;;;;;;5.00;3.78;;;15.20;99.90;;;;;;4955651;28;20128;-91
2021/10/03 13:11:04;;;;;;;7.05;5.35;;;15.20;99.90;;;;;;4943973;28;20472;-91
2021/10/03 13:13:32;;;;;;;7.13;4.95;;;15.20;99.90;;;;;;4962781;28;20042;-90
2021/10/03 13:16:07;;;;;;;6.72;4.95;;;15.10;99.90;;;;;;4956895;28;20062;-90
2021/10/03 13:19:14;;;;;;;7.88;5.20;;;15.10;99.90;;;;;;4962490;28;20117;-90
2021/10/03 13:21:40;;;;;;;6.10;4.45;;;15.10;99.90;;;;;;4968606;28;20086;-90
2021/10/03 13:24:06;;;;;;;7.25;4.35;;;15.10;99.90;;;;;;4955797;28;20094;-90
2021/10/03 13:26:33;;;;;;;6.03;3.80;;;15.10;99.90;;;;;;4958392;28;20476;-90
2021/10/03 13:28:59;;;;;;;4.47;3.55;;;15.00;99.90;;;;;;4959877;28;20030;-92
2021/10/03 13:31:25;;;;;;;7.53;5.18;;;15.00;99.90;;;;;;4958215;28;20031;-91
2021/10/03 13:33:53;;;;;;;5.88;4.75;;;15.00;99.90;;;;;;4959937;28;20027;-92
2021/10/03 13:38:58;;;;;;;7.22;4.90;;;14.90;99.90;;;;;;5016228;28;20057;-92
2021/10/03 13:41:24;;;;;;;9.23;7.45;;;14.90;99.90;;;;;;5009413;28;20026;-92
2021/10/03 13:43:50;;;;;;;10.00;7.45;;;14.90;99.90;;;;;;5009586;28;20296;-90